Time;durP1;ratioP1;P1;durP2;ratioP2;P2;SDS_P1;SDS_P2;PMS_P1;PMS_P2;Temp;Humidity;BMP_temperature;BMP_pressure;BME280_temperature;BME280_humidity;BME280_pressure;Samples;Min_cycle;Max_cycle;Signal;HPM_P1;HPM_P2
2022/07/03 00:00:23;;;;;;;3.00;2.20;;;;;;;;;;5042611;28;20431;-74
2022/07/03 00:02:50;;;;;;;3.90;2.70;;;;;;;;;;5044528;28;20500;-73
2022/07/03 00:05:17;;;;;;;3.20;2.10;;;;;;;;;;5044654;28;20492;-74
2022/07/03 00:07:45;;;;;;;3.97;2.50;;;;;;;;;;5043778;28;20425;-73
2022/07/03 00:10:13;;;;;;;3.10;2.50;;;;;;;;;;5039806;28;21541;-74
2022/07/03 00:12:40;;;;;;;4.43;2.40;;;;;;;;;;5043899;28;20417;-72
2022/07/03 00:15:08;;;;;;;3.28;2.70;;;;;;;;;;5043697;28;20421;-72
2022/07/03 00:17:35;;;;;;;3.28;2.25;;;;;;;;;;5043915;28;20496;-74
2022/07/03 00:20:02;;;;;;;3.35;2.10;;;;;;;;;;5043057;28;20516;-74
2022/07/03 00:22:31;;;;;;;2.55;1.63;;;;;;;;;;5041896;28;20431;-74
2022/07/03 00:25:03;;;;;;;4.07;2.30;;;;;;;;;;5043675;28;20518;-73
2022/07/03 00:27:30;;;;;;;2.30;2.10;;;;;;;;;;5043902;28;20423;-73
2022/07/03 00:30:00;;;;;;;2.17;1.80;;;;;;;;;;5043079;28;20425;-73
2022/07/03 00:32:27;;;;;;;2.60;1.70;;;;;;;;;;5041424;28;20748;-73
2022/07/03 00:34:55;;;;;;;2.77;1.90;;;;;;;;;;5043904;28;20417;-73
2022/07/03 00:37:23;;;;;;;2.60;1.70;;;;;;;;;;5043458;28;20417;-73
2022/07/03 00:39:51;;;;;;;2.58;1.85;;;;;;;;;;5041753;28;20429;-73
2022/07/03 00:42:19;;;;;;;4.33;2.30;;;;;;;;;;5042930;28;20431;-73
2022/07/03 00:44:48;;;;;;;3.50;2.40;;;;;;;;;;5043652;28;20469;-73
2022/07/03 00:47:15;;;;;;;3.00;2.70;;;;;;;;;;5041817;28;20447;-73
2022/07/03 00:49:45;;;;;;;4.60;2.83;;;;;;;;;;5043188;28;20435;-73
2022/07/03 00:52:14;;;;;;;2.80;2.50;;;;;;;;;;5070190;23;20427;-70
2022/07/03 00:54:44;;;;;;;4.53;2.60;;;;;;;;;;5065055;28;20432;-71
2022/07/03 00:57:14;;;;;;;2.80;2.50;;;;;;;;;;5066725;28;20404;-70
2022/07/03 00:59:43;;;;;;;4.50;2.40;;;;;;;;;;5066635;28;21030;-70
2022/07/03 01:02:13;;;;;;;4.05;2.60;;;;;;;;;;5066181;28;20415;-70
2022/07/03 01:04:47;;;;;;;4.13;2.60;;;;;;;;;;5066834;28;20415;-70
2022/07/03 01:07:20;;;;;;;4.30;3.00;;;;;;;;;;5066376;28;20476;-70
2022/07/03 01:09:55;;;;;;;3.80;2.80;;;;;;;;;;5063418;28;20433;-70
2022/07/03 01:12:25;;;;;;;4.15;2.60;;;;;;;;;;5065065;28;20848;-70
2022/07/03 01:14:57;;;;;;;3.80;2.90;;;;;;;;;;5066793;28;20415;-70
2022/07/03 01:17:27;;;;;;;3.20;2.67;;;;;;;;;;5066796;28;21022;-71
2022/07/03 01:19:59;;;;;;;5.55;2.90;;;;;;;;;;5066596;28;20491;-71
2022/07/03 01:22:31;;;;;;;4.13;2.40;;;;;;;;;;5065481;28;20491;-71
2022/07/03 01:25:05;;;;;;;2.90;2.60;;;;;;;;;;5058617;28;20418;-70
2022/07/03 01:27:36;;;;;;;3.60;2.58;;;;;;;;;;5068022;28;20427;-70
2022/07/03 01:30:05;;;;;;;2.30;2.10;;;;;;;;;;5070152;28;20431;-69
2022/07/03 01:32:34;;;;;;;3.40;2.70;;;;;;;;;;5070634;28;20441;-70
2022/07/03 01:35:02;;;;;;;3.08;2.60;;;;;;;;;;5068167;28;20437;-70
2022/07/03 01:37:31;;;;;;;3.25;2.60;;;;;;;;;;5070829;28;20473;-69
2022/07/03 01:39:59;;;;;;;4.22;3.10;;;;;;;;;;5079817;28;20875;-69
2022/07/03 01:42:26;;;;;;;4.28;3.20;;;;;;;;;;5090984;28;20457;-68
2022/07/03 01:44:56;;;;;;;4.90;3.63;;;;;;;;;;5087160;28;20837;-69
2022/07/03 01:47:25;;;;;;;5.90;3.53;;;;;;;;;;5070172;28;20416;-69
2022/07/03 01:49:53;;;;;;;3.92;3.53;;;;;;;;;;5069710;28;20518;-69
2022/07/03 01:52:21;;;;;;;5.65;3.90;;;;;;;;;;5069378;28;20418;-69
2022/07/03 01:54:49;;;;;;;3.97;3.58;;;;;;;;;;5069454;28;20418;-69
2022/07/03 01:57:16;;;;;;;4.55;3.75;;;;;;;;;;5069582;28;20425;-69
2022/07/03 01:59:43;;;;;;;4.05;3.05;;;;;;;;;;5068185;28;20423;-69
2022/07/03 02:02:16;;;;;;;4.30;2.35;;;;;;;;;;5068958;28;20899;-70
2022/07/03 02:04:52;;;;;;;3.90;2.45;;;;;;;;;;5067525;28;20431;-70
2022/07/03 02:07:22;;;;;;;3.43;2.37;;;;;;;;;;5072871;28;20501;-70
2022/07/03 02:09:50;;;;;;;3.28;2.30;;;;;;;;;;5067754;28;20451;-70
2022/07/03 02:12:19;;;;;;;4.82;2.28;;;;;;;;;;5069071;28;20419;-70
2022/07/03 02:14:51;;;;;;;2.78;2.10;;;;;;;;;;5070029;28;20423;-69
2022/07/03 02:17:21;;;;;;;2.45;2.25;;;;;;;;;;5070300;28;20424;-70
2022/07/03 02:19:53;;;;;;;2.50;2.20;;;;;;;;;;5069775;28;20518;-69
2022/07/03 02:22:21;;;;;;;3.97;2.60;;;;;;;;;;5067371;28;20530;-69
2022/07/03 02:24:49;;;;;;;3.43;2.30;;;;;;;;;;5068941;28;20420;-69
2022/07/03 02:27:18;;;;;;;3.33;2.30;;;;;;;;;;5069262;28;20416;-69
2022/07/03 02:29:48;;;;;;;3.70;3.00;;;;;;;;;;5068773;28;20420;-69
2022/07/03 02:32:19;;;;;;;3.13;2.20;;;;;;;;;;5068379;28;20765;-70
2022/07/03 02:34:51;;;;;;;5.80;2.60;;;;;;;;;;5068861;28;20418;-70
2022/07/03 02:37:19;;;;;;;3.20;2.30;;;;;;;;;;5066012;28;20432;-70
2022/07/03 02:39:47;;;;;;;2.80;2.50;;;;;;;;;;5068437;28;20497;-70
2022/07/03 02:42:21;;;;;;;3.80;2.63;;;;;;;;;;5068329;28;20422;-71
2022/07/03 02:44:50;;;;;;;3.47;2.50;;;;;;;;;;5066934;28;20420;-69
2022/07/03 02:47:23;;;;;;;4.85;2.40;;;;;;;;;;5068426;28;20422;-69
2022/07/03 02:49:58;;;;;;;3.83;2.70;;;;;;;;;;5068611;28;20407;-69
2022/07/03 02:52:43;;;;;;;4.90;2.70;;;;;;;;;;5066639;28;20538;-69
2022/07/03 02:55:12;;;;;;;4.03;2.50;;;;;;;;;;5068609;28;20510;-69
2022/07/03 02:57:41;;;;;;;3.80;2.42;;;;;;;;;;5068363;28;20416;-69
2022/07/03 03:00:09;;;;;;;3.10;2.17;;;;;;;;;;5067739;28;20980;-70
2022/07/03 03:02:55;;;;;;;4.38;2.40;;;;;;;;;;5068383;28;20422;-69
2022/07/03 03:05:27;;;;;;;2.65;2.20;;;;;;;;;;5067310;28;20435;-70
2022/07/03 03:08:01;;;;;;;3.03;2.60;;;;;;;;;;5067918;28;20419;-70
2022/07/03 03:10:29;;;;;;;4.00;2.40;;;;;;;;;;5067521;28;20445;-70
2022/07/03 03:12:59;;;;;;;4.50;2.63;;;;;;;;;;5068381;28;20412;-69
2022/07/03 03:15:29;;;;;;;4.13;2.47;;;;;;;;;;5068015;28;20439;-69
2022/07/03 03:17:57;;;;;;;3.05;2.00;;;;;;;;;;5067936;28;20415;-69
2022/07/03 03:20:32;;;;;;;2.72;2.30;;;;;;;;;;5064102;28;20495;-70
2022/07/03 03:23:18;;;;;;;3.00;2.17;;;;;;;;;;5067613;28;20426;-70
2022/07/03 03:25:45;;;;;;;3.03;2.30;;;;;;;;;;5068163;28;20732;-69
2022/07/03 03:28:12;;;;;;;2.42;2.20;;;;;;;;;;5068098;28;20629;-69
2022/07/03 03:30:40;;;;;;;4.35;2.28;;;;;;;;;;5066804;28;20424;-70
2022/07/03 03:33:09;;;;;;;2.90;2.25;;;;;;;;;;5068285;28;20502;-70
2022/07/03 03:35:37;;;;;;;3.47;2.00;;;;;;;;;;5066867;28;20489;-69
2022/07/03 03:38:05;;;;;;;2.78;2.50;;;;;;;;;;5067622;28;20491;-70
2022/07/03 03:40:32;;;;;;;3.55;2.10;;;;;;;;;;5066965;28;20769;-71
2022/07/03 03:43:00;;;;;;;2.40;2.20;;;;;;;;;;5067919;28;20870;-69
2022/07/03 03:45:27;;;;;;;2.05;1.85;;;;;;;;;;5065565;28;20435;-70
2022/07/03 03:47:54;;;;;;;2.58;2.00;;;;;;;;;;5066918;28;20762;-70
2022/07/03 03:50:21;;;;;;;2.97;2.03;;;;;;;;;;5064483;28;20526;-70
2022/07/03 03:52:50;;;;;;;3.00;2.30;;;;;;;;;;5067020;28;20417;-69
2022/07/03 03:55:17;;;;;;;4.40;2.20;;;;;;;;;;5067652;28;20428;-69
2022/07/03 03:57:44;;;;;;;3.20;2.17;;;;;;;;;;5067176;28;20418;-70
2022/07/03 04:00:12;;;;;;;3.58;2.22;;;;;;;;;;5063889;28;20425;-70
2022/07/03 04:02:39;;;;;;;4.60;2.10;;;;;;;;;;5065804;28;20945;-70
2022/07/03 04:05:07;;;;;;;4.20;2.53;;;;;;;;;;5064845;28;20459;-70
2022/07/03 04:07:34;;;;;;;3.83;2.60;;;;;;;;;;5066920;28;20416;-70
2022/07/03 04:10:02;;;;;;;4.40;2.80;;;;;;;;;;5066865;28;20415;-69
2022/07/03 04:12:30;;;;;;;3.00;2.40;;;;;;;;;;5067310;28;20604;-69
2022/07/03 04:14:58;;;;;;;4.40;2.58;;;;;;;;;;5067253;28;20419;-69
2022/07/03 04:17:26;;;;;;;4.10;2.75;;;;;;;;;;5067053;28;20422;-71
2022/07/03 04:19:53;;;;;;;4.43;2.75;;;;;;;;;;5065101;28;20446;-69
2022/07/03 04:22:20;;;;;;;4.25;3.00;;;;;;;;;;5065792;28;20898;-69
2022/07/03 04:24:47;;;;;;;4.70;3.10;;;;;;;;;;5067546;28;20419;-70
2022/07/03 04:27:16;;;;;;;4.05;3.05;;;;;;;;;;5067622;28;20408;-70
2022/07/03 04:29:43;;;;;;;3.20;2.90;;;;;;;;;;5067761;28;20438;-69
2022/07/03 04:32:10;;;;;;;5.90;3.50;;;;;;;;;;5066489;28;20916;-69
2022/07/03 04:34:38;;;;;;;3.70;3.17;;;;;;;;;;5065218;28;20877;-70
2022/07/03 04:37:05;;;;;;;3.47;3.00;;;;;;;;;;5066794;28;20804;-70
2022/07/03 04:39:32;;;;;;;3.43;3.13;;;;;;;;;;5066973;28;20950;-70
2022/07/03 04:42:00;;;;;;;3.90;3.10;;;;;;;;;;5066333;28;20927;-70
2022/07/03 04:44:28;;;;;;;5.90;3.40;;;;;;;;;;5064370;28;20438;-70
2022/07/03 04:46:55;;;;;;;5.28;3.50;;;;;;;;;;5066390;28;20561;-70
2022/07/03 04:49:22;;;;;;;5.13;3.13;;;;;;;;;;5066399;28;20411;-70
2022/07/03 04:51:49;;;;;;;3.70;3.30;;;;;;;;;;5063893;28;21088;-70
2022/07/03 04:54:17;;;;;;;3.55;3.10;;;;;;;;;;5066624;28;20478;-70
2022/07/03 04:56:44;;;;;;;3.17;2.88;;;;;;;;;;5067015;28;20771;-70
2022/07/03 04:59:11;;;;;;;3.70;3.10;;;;;;;;;;5067069;28;20422;-70
2022/07/03 05:01:39;;;;;;;3.65;3.30;;;;;;;;;;5067743;28;20425;-70
2022/07/03 05:04:06;;;;;;;3.20;2.90;;;;;;;;;;5070821;28;20404;-70
2022/07/03 05:06:34;;;;;;;3.60;3.20;;;;;;;;;;5068763;28;20458;-69
2022/07/03 05:09:01;;;;;;;3.90;3.10;;;;;;;;;;5059090;28;20438;-70
2022/07/03 05:11:28;;;;;;;4.37;3.20;;;;;;;;;;5058690;28;20435;-69
2022/07/03 05:13:57;;;;;;;4.55;3.58;;;;;;;;;;5050611;28;20510;-69
2022/07/03 05:16:25;;;;;;;3.28;2.97;;;;;;;;;;5054682;28;20524;-71
2022/07/03 05:18:53;;;;;;;4.20;3.20;;;;;;;;;;5070504;28;20931;-70
2022/07/03 05:21:20;;;;;;;5.28;3.35;;;;;;;;;;5068428;28;20516;-69
2022/07/03 05:23:48;;;;;;;4.78;3.30;;;;;;;;;;5085535;28;20417;-70
2022/07/03 05:26:15;;;;;;;4.20;3.10;;;;;;;;;;5090132;28;20963;-69
2022/07/03 05:28:42;;;;;;;3.47;3.17;;;;;;;;;;5090260;28;20414;-69
2022/07/03 05:31:09;;;;;;;3.80;3.00;;;;;;;;;;5089333;28;20460;-70
2022/07/03 05:33:37;;;;;;;4.38;2.60;;;;;;;;;;5061403;28;20437;-70
2022/07/03 05:36:06;;;;;;;4.63;2.70;;;;;;;;;;5069834;28;20424;-71
2022/07/03 05:41:18;;;;;;;3.50;2.60;;;;;;;;;;5075230;28;20494;-70
2022/07/03 05:43:46;;;;;;;3.15;2.10;;;;;;;;;;5082119;28;20526;-70
2022/07/03 05:46:13;;;;;;;3.33;2.00;;;;;;;;;;5073335;28;20989;-69
2022/07/03 05:48:40;;;;;;;3.67;2.30;;;;;;;;;;5090000;28;20410;-71
2022/07/03 05:51:08;;;;;;;3.20;2.30;;;;;;;;;;5082688;28;20429;-70
2022/07/03 05:53:36;;;;;;;3.50;2.50;;;;;;;;;;5090135;28;20414;-70
2022/07/03 05:56:03;;;;;;;2.80;2.20;;;;;;;;;;5089955;28;20505;-71
2022/07/03 05:58:30;;;;;;;3.42;2.08;;;;;;;;;;5071066;28;20794;-69
2022/07/03 06:00:57;;;;;;;2.65;2.28;;;;;;;;;;5080622;28;20414;-70
2022/07/03 06:03:24;;;;;;;2.40;2.08;;;;;;;;;;5089612;28;20413;-71
2022/07/03 06:05:51;;;;;;;5.43;2.70;;;;;;;;;;5089478;28;20498;-70
2022/07/03 06:08:20;;;;;;;3.00;2.20;;;;;;;;;;5089487;28;20410;-69
2022/07/03 06:10:47;;;;;;;4.97;2.15;;;;;;;;;;5086872;28;20761;-71
2022/07/03 06:13:14;;;;;;;4.18;2.08;;;;;;;;;;5071757;28;20445;-70
2022/07/03 06:15:41;;;;;;;3.60;2.30;;;;;;;;;;5064358;28;20421;-69
2022/07/03 06:18:09;;;;;;;5.22;2.38;;;;;;;;;;5081492;28;20420;-71
2022/07/03 06:20:36;;;;;;;3.13;2.20;;;;;;;;;;5069360;28;20411;-69
2022/07/03 06:23:03;;;;;;;5.70;2.10;;;;;;;;;;5080674;28;20874;-69
2022/07/03 06:25:35;;;;;;;4.85;2.00;;;;;;;;;;5080748;28;20431;-71
2022/07/03 06:28:03;;;;;;;3.47;2.00;;;;;;;;;;5069751;28;20431;-69
2022/07/03 06:30:30;;;;;;;2.67;2.10;;;;;;;;;;5079666;28;20493;-70
2022/07/03 06:32:57;;;;;;;2.88;2.20;;;;;;;;;;5088961;28;20986;-70
2022/07/03 06:35:24;;;;;;;2.80;1.97;;;;;;;;;;5089361;28;20418;-70
2022/07/03 06:37:51;;;;;;;2.10;1.70;;;;;;;;;;5088918;28;20410;-70
2022/07/03 06:40:18;;;;;;;3.05;1.98;;;;;;;;;;5075073;28;20430;-70
2022/07/03 06:42:47;;;;;;;4.15;2.00;;;;;;;;;;5074917;28;20412;-71
2022/07/03 06:45:14;;;;;;;4.10;2.17;;;;;;;;;;5088783;28;20421;-70
2022/07/03 06:47:41;;;;;;;3.60;2.00;;;;;;;;;;5088554;28;20416;-70
2022/07/03 06:50:11;;;;;;;4.20;2.25;;;;;;;;;;5061295;28;20505;-70
2022/07/03 06:52:38;;;;;;;3.70;2.10;;;;;;;;;;5090907;22;20443;-78
2022/07/03 06:55:06;;;;;;;2.50;2.00;;;;;;;;;;5073006;28;20412;-77
2022/07/03 06:57:33;;;;;;;2.80;2.00;;;;;;;;;;5083332;28;20634;-80
2022/07/03 07:00:01;;;;;;;4.00;2.10;;;;;;;;;;5083145;28;20437;-79
2022/07/03 07:02:28;;;;;;;2.95;2.08;;;;;;;;;;5070590;28;20410;-79
2022/07/03 07:04:55;;;;;;;4.13;2.13;;;;;;;;;;5067631;28;20472;-78
2022/07/03 07:07:23;;;;;;;3.08;1.90;;;;;;;;;;5084521;28;20785;-79
2022/07/03 07:09:50;;;;;;;3.80;2.10;;;;;;;;;;5087890;28;20413;-78
2022/07/03 07:12:17;;;;;;;4.60;2.55;;;;;;;;;;5087182;28;20889;-79
2022/07/03 07:14:44;;;;;;;2.88;2.10;;;;;;;;;;5078579;28;20515;-79
2022/07/03 07:17:12;;;;;;;2.92;2.10;;;;;;;;;;5069955;28;20488;-79
2022/07/03 07:19:39;;;;;;;3.50;2.40;;;;;;;;;;5070582;28;20446;-79
2022/07/03 07:22:07;;;;;;;2.83;2.10;;;;;;;;;;5072199;28;20433;-79
2022/07/03 07:24:34;;;;;;;3.20;2.30;;;;;;;;;;5074713;28;20407;-79
2022/07/03 07:27:01;;;;;;;3.30;2.40;;;;;;;;;;5086061;28;20757;-79
2022/07/03 07:29:28;;;;;;;2.40;2.10;;;;;;;;;;5075702;28;20431;-78
2022/07/03 07:31:55;;;;;;;3.53;2.42;;;;;;;;;;5066569;28;20436;-78
2022/07/03 07:34:23;;;;;;;2.47;2.10;;;;;;;;;;5067418;28;20418;-79
2022/07/03 07:36:50;;;;;;;3.13;2.30;;;;;;;;;;5085920;28;20417;-80
2022/07/03 07:39:17;;;;;;;2.67;2.45;;;;;;;;;;5098431;28;20405;-78
2022/07/03 07:41:45;;;;;;;4.80;2.60;;;;;;;;;;5088089;28;20441;-78
2022/07/03 07:44:12;;;;;;;4.00;2.30;;;;;;;;;;5092890;28;20475;-77
2022/07/03 07:46:39;;;;;;;2.40;2.20;;;;;;;;;;5086934;28;20412;-79
2022/07/03 07:49:06;;;;;;;4.22;2.85;;;;;;;;;;5102619;28;20413;-78
2022/07/03 07:51:34;;;;;;;2.70;2.50;;;;;;;;;;5101838;28;20833;-78
2022/07/03 07:54:01;;;;;;;4.00;2.40;;;;;;;;;;5085756;28;20424;-78
2022/07/03 07:56:29;;;;;;;2.75;2.45;;;;;;;;;;5065679;28;20451;-77
2022/07/03 07:58:56;;;;;;;3.55;2.40;;;;;;;;;;5068593;28;20491;-78
2022/07/03 08:06:53;;;;;;;3.90;2.50;;;;;;;;;;5092098;28;20389;-79
2022/07/03 08:09:22;;;;;;;4.00;3.10;;;;;;;;;;5080516;28;20517;-79
2022/07/03 08:11:49;;;;;;;2.60;2.40;;;;;;;;;;5072781;28;20417;-78
2022/07/03 08:14:16;;;;;;;4.65;2.70;;;;;;;;;;5070037;28;20423;-79
2022/07/03 08:16:45;;;;;;;3.15;2.70;;;;;;;;;;5077746;28;20426;-78
2022/07/03 08:19:13;;;;;;;3.40;2.90;;;;;;;;;;5087716;28;20425;-78
2022/07/03 08:21:40;;;;;;;3.87;2.93;;;;;;;;;;5086603;28;20501;-77
2022/07/03 08:24:08;;;;;;;4.10;2.63;;;;;;;;;;5076605;28;20530;-80
2022/07/03 08:26:35;;;;;;;4.10;2.50;;;;;;;;;;5067747;28;20428;-77
2022/07/03 08:29:02;;;;;;;3.63;2.30;;;;;;;;;;5065017;28;20472;-80
2022/07/03 08:31:29;;;;;;;3.00;2.35;;;;;;;;;;5086206;28;20410;-81
2022/07/03 08:33:57;;;;;;;3.13;2.05;;;;;;;;;;5085378;28;20430;-80
2022/07/03 08:36:24;;;;;;;3.30;2.20;;;;;;;;;;5088272;28;20417;-78
2022/07/03 08:38:51;;;;;;;2.80;2.10;;;;;;;;;;5081837;28;20446;-78
2022/07/03 08:41:20;;;;;;;2.95;1.80;;;;;;;;;;5077045;28;20422;-78
2022/07/03 08:43:49;;;;;;;2.60;1.70;;;;;;;;;;5107724;28;20417;-78
2022/07/03 08:46:16;;;;;;;2.97;1.70;;;;;;;;;;5101302;28;20788;-77
2022/07/03 08:48:45;;;;;;;2.10;1.50;;;;;;;;;;5091419;28;20432;-78
2022/07/03 08:51:12;;;;;;;3.40;1.90;;;;;;;;;;5084787;28;20448;-76
2022/07/03 08:53:40;;;;;;;2.60;1.52;;;;;;;;;;5081902;28;20423;-78
2022/07/03 08:56:09;;;;;;;4.03;1.70;;;;;;;;;;5077747;28;20425;-80
2022/07/03 08:58:37;;;;;;;1.98;1.38;;;;;;;;;;5090664;28;20860;-78
2022/07/03 09:01:04;;;;;;;2.47;1.40;;;;;;;;;;5077591;28;20556;-78
2022/07/03 09:03:32;;;;;;;2.30;1.17;;;;;;;;;;5078424;28;20419;-79
2022/07/03 09:05:59;;;;;;;1.98;1.35;;;;;;;;;;5078093;28;20422;-80
2022/07/03 09:08:28;;;;;;;1.98;1.30;;;;;;;;;;5090107;28;20418;-80
2022/07/03 09:10:55;;;;;;;2.40;1.60;;;;;;;;;;5097811;28;20530;-79
2022/07/03 09:13:22;;;;;;;2.22;1.40;;;;;;;;;;5101784;28;20919;-77
2022/07/03 09:15:51;;;;;;;3.10;1.50;;;;;;;;;;5077896;28;20433;-79
2022/07/03 09:18:18;;;;;;;2.42;1.10;;;;;;;;;;5073574;28;20455;-80
2022/07/03 09:20:45;;;;;;;2.38;1.30;;;;;;;;;;5081984;28;20410;-77
2022/07/03 09:23:13;;;;;;;2.40;1.30;;;;;;;;;;5093244;28;20413;-78
2022/07/03 09:25:53;;;;;;;1.53;1.00;;;;;;;;;;5079863;28;20420;-77
2022/07/03 09:28:21;;;;;;;3.97;1.40;;;;;;;;;;5092284;28;20436;-78
2022/07/03 09:30:59;;;;;;;2.35;1.10;;;;;;;;;;5075746;28;20429;-79
2022/07/03 09:33:26;;;;;;;2.28;1.17;;;;;;;;;;5068813;28;20519;-78
2022/07/03 09:35:55;;;;;;;1.50;1.00;;;;;;;;;;5074294;28;20454;-78
2022/07/03 09:38:22;;;;;;;1.70;1.10;;;;;;;;;;5069282;28;20415;-78
2022/07/03 09:40:51;;;;;;;2.05;1.20;;;;;;;;;;5069873;28;20424;-77
2022/07/03 09:43:24;;;;;;;2.25;1.23;;;;;;;;;;5089696;28;20828;-79
2022/07/03 09:45:52;;;;;;;2.78;1.30;;;;;;;;;;5074491;28;20426;-79
2022/07/03 09:48:25;;;;;;;2.42;1.00;;;;;;;;;;5067975;28;20906;-79
2022/07/03 09:51:09;;;;;;;2.30;1.20;;;;;;;;;;5075239;28;20415;-80
2022/07/03 09:53:44;;;;;;;2.20;1.20;;;;;;;;;;5061989;28;20880;-79
2022/07/03 09:56:12;;;;;;;1.90;1.10;;;;;;;;;;5067783;28;20408;-78
2022/07/03 09:58:39;;;;;;;2.83;1.10;;;;;;;;;;5084240;28;20450;-78
2022/07/03 10:01:19;;;;;;;1.50;1.20;;;;;;;;;;5068629;28;20433;-78
2022/07/03 10:03:48;;;;;;;2.95;1.30;;;;;;;;;;5068743;28;20473;-78
2022/07/03 10:06:15;;;;;;;1.50;0.85;;;;;;;;;;5068515;28;20510;-77
2022/07/03 10:08:43;;;;;;;2.55;1.20;;;;;;;;;;5078683;28;20417;-79
2022/07/03 10:11:11;;;;;;;2.40;0.90;;;;;;;;;;5090035;28;20471;-78
2022/07/03 10:13:39;;;;;;;1.60;1.00;;;;;;;;;;5091226;28;20436;-78
2022/07/03 10:16:07;;;;;;;2.30;1.40;;;;;;;;;;5091256;28;20414;-79
2022/07/03 10:18:36;;;;;;;2.45;1.00;;;;;;;;;;5085457;28;20429;-78
2022/07/03 10:21:07;;;;;;;2.83;1.10;;;;;;;;;;5076838;28;20435;-79
2022/07/03 10:23:34;;;;;;;1.92;1.00;;;;;;;;;;5070549;28;20418;-77
2022/07/03 10:26:02;;;;;;;1.27;0.90;;;;;;;;;;5071084;28;20419;-78
2022/07/03 10:28:30;;;;;;;3.55;1.17;;;;;;;;;;5061762;28;20422;-80
2022/07/03 10:30:57;;;;;;;1.75;1.20;;;;;;;;;;5074511;28;20445;-77
2022/07/03 10:33:25;;;;;;;1.30;1.10;;;;;;;;;;5080258;28;20852;-80
2022/07/03 10:35:53;;;;;;;2.92;1.00;;;;;;;;;;5073380;28;20511;-79
2022/07/03 10:38:34;;;;;;;1.50;1.10;;;;;;;;;;5078285;28;20410;-77
2022/07/03 10:46:33;;;;;;;1.83;0.90;;;;;;;;;;5074699;28;20397;-79
2022/07/03 10:49:02;;;;;;;1.13;0.73;;;;;;;;;;5065835;28;20500;-78
2022/07/03 10:51:30;;;;;;;2.80;1.20;;;;;;;;;;5071432;28;20516;-79
2022/07/03 10:54:20;;;;;;;2.88;0.70;;;;;;;;;;5070114;28;20427;-79
2022/07/03 10:57:06;;;;;;;1.42;0.90;;;;;;;;;;5088012;28;20420;-79
2022/07/03 10:59:52;;;;;;;1.02;0.93;;;;;;;;;;5087174;28;20705;-78
2022/07/03 11:02:20;;;;;;;1.90;0.90;;;;;;;;;;5083361;28;20452;-79
2022/07/03 11:05:09;;;;;;;1.70;0.90;;;;;;;;;;5072234;28;20490;-77
2022/07/03 11:07:40;;;;;;;2.30;1.00;;;;;;;;;;5066074;28;20845;-77
2022/07/03 11:10:24;;;;;;;2.72;1.00;;;;;;;;;;5074483;28;20444;-77
2022/07/03 11:12:57;;;;;;;2.40;1.20;;;;;;;;;;5071445;28;20477;-77
2022/07/03 11:15:28;;;;;;;2.80;1.10;;;;;;;;;;5087811;28;20868;-78
2022/07/03 11:18:25;;;;;;;1.60;1.10;;;;;;;;;;5065911;28;20432;-77
2022/07/03 11:21:13;;;;;;;1.70;1.00;;;;;;;;;;5022576;28;20414;-78
2022/07/03 11:23:45;;;;;;;1.25;0.93;;;;;;;;;;5051323;28;20484;-79
2022/07/03 11:26:23;;;;;;;1.60;1.00;;;;;;;;;;5078909;28;20413;-78
2022/07/03 11:28:52;;;;;;;1.40;1.00;;;;;;;;;;5086529;28;20529;-77
2022/07/03 11:31:21;;;;;;;2.60;1.10;;;;;;;;;;5063162;28;20452;-77
2022/07/03 11:33:49;;;;;;;1.70;1.00;;;;;;;;;;5074217;28;20871;-78
2022/07/03 11:36:26;;;;;;;1.35;0.90;;;;;;;;;;5085043;28;20763;-76
2022/07/03 11:39:04;;;;;;;2.10;0.90;;;;;;;;;;5084707;28;20874;-75
2022/07/03 11:41:32;;;;;;;3.03;0.90;;;;;;;;;;5058515;28;20547;-75
2022/07/03 11:44:02;;;;;;;3.13;0.95;;;;;;;;;;5076628;28;20460;-75
2022/07/03 11:46:30;;;;;;;1.90;1.10;;;;;;;;;;5068800;28;20489;-77
2022/07/03 11:49:05;;;;;;;1.00;0.82;;;;;;;;;;5066459;28;20426;-76
2022/07/03 11:51:32;;;;;;;1.15;0.60;;;;;;;;;;5076712;28;20435;-77
2022/07/03 11:53:59;;;;;;;1.48;0.90;;;;;;;;;;5084787;28;20974;-77
2022/07/03 11:56:28;;;;;;;2.20;0.90;;;;;;;;;;5085081;28;20414;-77
2022/07/03 11:58:56;;;;;;;2.40;1.17;;;;;;;;;;5075637;28;20435;-77
2022/07/03 12:01:31;;;;;;;1.70;1.10;;;;;;;;;;5067204;28;20852;-77
2022/07/03 12:04:05;;;;;;;0.70;0.70;;;;;;;;;;5069097;28;20418;-77
2022/07/03 12:06:35;;;;;;;0.70;0.60;;;;;;;;;;5084525;28;20418;-77
2022/07/03 12:09:02;;;;;;;1.30;0.80;;;;;;;;;;5084209;28;20493;-76
2022/07/03 12:11:30;;;;;;;1.15;0.70;;;;;;;;;;5083784;28;20421;-76
2022/07/03 12:13:57;;;;;;;1.00;0.63;;;;;;;;;;5057770;28;20434;-77
2022/07/03 12:16:32;;;;;;;1.80;0.70;;;;;;;;;;5074668;28;20421;-76
2022/07/03 12:19:05;;;;;;;2.90;0.70;;;;;;;;;;5072345;28;20438;-77
2022/07/03 12:21:37;;;;;;;1.50;0.50;;;;;;;;;;5067447;28;20461;-77
2022/07/03 12:24:10;;;;;;;1.70;0.70;;;;;;;;;;5064586;28;20451;-76
2022/07/03 12:26:37;;;;;;;2.10;0.70;;;;;;;;;;5077586;28;20420;-76
2022/07/03 12:29:05;;;;;;;1.60;0.70;;;;;;;;;;5080743;28;20415;-77
2022/07/03 12:31:33;;;;;;;1.75;0.60;;;;;;;;;;5077663;28;20473;-76
2022/07/03 12:34:03;;;;;;;0.50;0.50;;;;;;;;;;5072851;28;21195;-76
2022/07/03 12:36:30;;;;;;;0.93;0.75;;;;;;;;;;5081081;28;20826;-76
2022/07/03 12:38:59;;;;;;;1.70;0.60;;;;;;;;;;5071269;28;20445;-76
2022/07/03 12:41:27;;;;;;;1.30;0.60;;;;;;;;;;5066567;28;20480;-76
2022/07/03 12:43:55;;;;;;;1.30;0.70;;;;;;;;;;5075987;28;20722;-76
2022/07/03 12:46:23;;;;;;;1.40;0.90;;;;;;;;;;5089021;28;20766;-77
2022/07/03 12:48:51;;;;;;;0.80;0.80;;;;;;;;;;5085004;28;20707;-75
2022/07/03 12:53:55;;;;;;;0.80;0.60;;;;;;;;;;5094879;22;20437;-73
2022/07/03 12:56:23;;;;;;;1.20;0.77;;;;;;;;;;5070793;28;20489;-75
2022/07/03 13:01:36;;;;;;;1.10;0.70;;;;;;;;;;5086881;28;20393;-73
2022/07/03 13:04:04;;;;;;;1.57;0.80;;;;;;;;;;5087030;28;21014;-72
2022/07/03 13:06:31;;;;;;;0.90;0.60;;;;;;;;;;5062674;28;20427;-72
2022/07/03 13:09:00;;;;;;;1.38;0.88;;;;;;;;;;5060299;28;20417;-74
2022/07/03 13:11:28;;;;;;;0.90;0.50;;;;;;;;;;5086590;28;20845;-72
2022/07/03 13:13:56;;;;;;;0.93;0.60;;;;;;;;;;5059838;28;20429;-72
2022/07/03 13:16:26;;;;;;;1.40;0.50;;;;;;;;;;5077001;28;20778;-72
2022/07/03 13:19:03;;;;;;;0.90;0.70;;;;;;;;;;5080321;28;20439;-72
2022/07/03 13:21:30;;;;;;;1.50;0.47;;;;;;;;;;5057378;28;20443;-75
2022/07/03 13:23:57;;;;;;;2.63;0.70;;;;;;;;;;5072927;28;20416;-73
2022/07/03 13:26:26;;;;;;;1.70;0.63;;;;;;;;;;5091212;28;20402;-72
2022/07/03 13:28:53;;;;;;;1.02;0.60;;;;;;;;;;5075867;28;20470;-72
2022/07/03 13:31:20;;;;;;;1.70;0.60;;;;;;;;;;5077973;28;20426;-72
2022/07/03 13:33:47;;;;;;;1.10;1.00;;;;;;;;;;5082019;28;20812;-71
2022/07/03 13:36:16;;;;;;;1.30;0.60;;;;;;;;;;5093536;28;20433;-70
2022/07/03 13:38:43;;;;;;;1.33;0.50;;;;;;;;;;5088179;28;20449;-72
2022/07/03 13:41:11;;;;;;;1.67;0.60;;;;;;;;;;5083908;28;20418;-71
2022/07/03 13:43:39;;;;;;;0.90;0.50;;;;;;;;;;5078553;28;20963;-73
2022/07/03 13:46:06;;;;;;;0.98;0.70;;;;;;;;;;5074669;28;20414;-74
2022/07/03 13:48:33;;;;;;;1.48;0.50;;;;;;;;;;5089760;28;20504;-74
2022/07/03 13:51:01;;;;;;;1.50;0.60;;;;;;;;;;5077318;28;20419;-71
2022/07/03 13:53:28;;;;;;;2.70;0.60;;;;;;;;;;5083070;28;20446;-71
2022/07/03 13:55:56;;;;;;;1.88;0.65;;;;;;;;;;5070446;28;20894;-72
2022/07/03 13:58:24;;;;;;;1.00;0.60;;;;;;;;;;5073466;28;20438;-72
2022/07/03 14:00:52;;;;;;;1.60;0.50;;;;;;;;;;5054924;28;20472;-70
2022/07/03 14:03:20;;;;;;;0.90;0.60;;;;;;;;;;5063174;28;20420;-74
2022/07/03 14:05:48;;;;;;;1.20;0.52;;;;;;;;;;5090286;28;20412;-72
2022/07/03 14:08:15;;;;;;;1.70;0.57;;;;;;;;;;5089627;28;20429;-73
2022/07/03 14:10:42;;;;;;;1.30;0.60;;;;;;;;;;5089307;28;20501;-72
2022/07/03 14:13:09;;;;;;;0.90;0.50;;;;;;;;;;5060099;28;20843;-73
2022/07/03 14:15:36;;;;;;;1.55;0.60;;;;;;;;;;5067891;28;20428;-72
2022/07/03 14:18:05;;;;;;;3.10;0.80;;;;;;;;;;5089887;28;20410;-70
2022/07/03 14:20:32;;;;;;;0.95;0.68;;;;;;;;;;5084533;28;20411;-73
2022/07/03 14:22:59;;;;;;;0.80;0.60;;;;;;;;;;5088587;28;20420;-71
2022/07/03 14:25:26;;;;;;;1.33;0.60;;;;;;;;;;5076289;28;20879;-73
2022/07/03 14:33:24;;;;;;;0.85;0.70;;;;;;;;;;5076475;28;20436;-73
2022/07/03 14:35:52;;;;;;;0.90;0.80;;;;;;;;;;5089171;28;20426;-74
2022/07/03 14:38:19;;;;;;;1.60;0.88;;;;;;;;;;5089397;28;20418;-70
2022/07/03 14:40:46;;;;;;;1.38;1.10;;;;;;;;;;5089274;28;20892;-72
2022/07/03 14:43:13;;;;;;;1.27;0.73;;;;;;;;;;5089582;28;20417;-71
2022/07/03 14:45:41;;;;;;;1.35;0.80;;;;;;;;;;5067256;28;20429;-72
2022/07/03 14:48:08;;;;;;;1.50;0.80;;;;;;;;;;5071489;28;20420;-73
2022/07/03 14:50:37;;;;;;;0.82;0.65;;;;;;;;;;5082499;28;20508;-73
2022/07/03 14:53:08;;;;;;;1.90;0.82;;;;;;;;;;5071561;28;20421;-71
2022/07/03 14:55:37;;;;;;;1.67;0.80;;;;;;;;;;5067057;28;20548;-72
2022/07/03 14:58:06;;;;;;;1.60;0.70;;;;;;;;;;5074562;28;20874;-71
2022/07/03 15:00:34;;;;;;;1.67;0.70;;;;;;;;;;5088136;28;20787;-72
2022/07/03 15:03:05;;;;;;;2.35;1.00;;;;;;;;;;5057754;28;20437;-74
2022/07/03 15:05:33;;;;;;;1.25;0.90;;;;;;;;;;5062617;28;20405;-74
2022/07/03 15:08:05;;;;;;;1.77;0.90;;;;;;;;;;5088338;28;20417;-72
2022/07/03 15:10:35;;;;;;;1.27;0.50;;;;;;;;;;5088217;28;20410;-72
2022/07/03 15:13:02;;;;;;;1.38;0.60;;;;;;;;;;5078070;28;20464;-72
2022/07/03 15:15:30;;;;;;;1.00;0.50;;;;;;;;;;5080571;28;20425;-72
2022/07/03 15:17:58;;;;;;;1.30;0.60;;;;;;;;;;5068156;28;20502;-72